createdAt,value
2018-05-10T00:02:08.664Z,4.97
2018-05-10T00:04:35.443Z,3.70
2018-05-10T00:07:01.547Z,4.53
2018-05-10T00:09:28.310Z,3.90
2018-05-10T00:11:55.155Z,4.13
2018-05-10T00:14:21.110Z,4.10
2018-05-10T00:16:47.149Z,5.20
2018-05-10T00:19:13.196Z,4.63
2018-05-10T00:21:39.201Z,3.97
2018-05-10T00:24:05.975Z,4.03
2018-05-10T00:26:32.033Z,4.43
2018-05-10T00:28:58.045Z,4.20
2018-05-10T00:31:24.066Z,4.07
2018-05-10T00:33:50.850Z,4.13
2018-05-10T00:36:16.874Z,4.47
2018-05-10T00:38:42.909Z,4.23
2018-05-10T00:41:08.934Z,4.20
2018-05-10T00:43:35.693Z,4.23
2018-05-10T00:46:01.726Z,4.20
2018-05-10T00:48:27.746Z,4.53
2018-05-10T00:50:54.512Z,4.13
2018-05-10T00:53:20.540Z,4.70
2018-05-10T00:55:47.297Z,4.63
2018-05-10T00:58:14.053Z,4.10
2018-05-10T01:00:40.821Z,4.83
2018-05-10T01:03:08.790Z,3.57
2018-05-10T01:05:34.819Z,3.90
2018-05-10T01:08:01.590Z,3.77
2018-05-10T01:10:27.624Z,4.23
2018-05-10T01:12:53.657Z,3.90
2018-05-10T01:15:19.685Z,3.90
2018-05-10T01:17:46.487Z,4.17
2018-05-10T01:20:12.519Z,5.40
2018-05-10T01:22:38.532Z,4.50
2018-05-10T01:25:04.570Z,3.97
2018-05-10T01:27:30.583Z,4.70
2018-05-10T01:29:57.366Z,4.57
2018-05-10T01:32:23.387Z,4.13
2018-05-10T01:35:01.882Z,4.60
2018-05-10T01:37:27.900Z,4.67
2018-05-10T01:39:53.914Z,4.23
2018-05-10T01:42:19.945Z,5.07
2018-05-10T01:44:45.971Z,4.17
2018-05-10T01:47:12.049Z,4.17
2018-05-10T01:49:38.081Z,4.60
2018-05-10T01:52:04.105Z,4.80
2018-05-10T01:54:30.106Z,5.00
2018-05-10T01:56:56.116Z,5.70
2018-05-10T01:59:22.891Z,4.50
2018-05-10T02:01:48.913Z,5.07
2018-05-10T02:04:15.692Z,5.33
2018-05-10T02:06:41.693Z,5.40
2018-05-10T02:09:08.457Z,5.00
2018-05-10T02:11:34.478Z,5.00
2018-05-10T02:14:01.246Z,4.17
2018-05-10T02:16:28.030Z,5.67
2018-05-10T02:19:00.173Z,5.10
2018-05-10T02:21:26.940Z,5.17
2018-05-10T02:23:53.708Z,4.90
2018-05-10T02:26:19.747Z,4.80
2018-05-10T02:28:45.783Z,5.30
2018-05-10T02:31:11.846Z,5.10
2018-05-10T02:33:37.854Z,5.33
2018-05-10T02:36:03.959Z,5.07
2018-05-10T02:38:29.917Z,5.10
2018-05-10T02:40:55.951Z,4.23
2018-05-10T02:43:21.961Z,4.43
2018-05-10T02:45:47.995Z,4.43
2018-05-10T02:48:14.750Z,4.07
2018-05-10T02:50:41.515Z,4.27
2018-05-10T02:53:08.281Z,4.20
2018-05-10T02:55:34.297Z,3.80
2018-05-10T02:58:01.090Z,4.30
2018-05-10T03:00:27.106Z,3.80
2018-05-10T03:02:53.230Z,4.50
2018-05-10T03:05:19.236Z,4.20
2018-05-10T03:07:45.371Z,4.13
2018-05-10T03:10:11.272Z,4.23
2018-05-10T03:12:37.283Z,4.50
2018-05-10T03:15:03.305Z,4.40
2018-05-10T03:17:30.064Z,4.40
2018-05-10T03:19:56.814Z,4.33
2018-05-10T03:22:23.597Z,4.50
2018-05-10T03:24:49.611Z,4.60
2018-05-10T03:27:15.647Z,5.17
2018-05-10T03:29:42.394Z,4.70
2018-05-10T03:32:09.152Z,4.60
2018-05-10T03:34:35.893Z,5.10
2018-05-10T03:37:02.658Z,4.77
2018-05-10T03:39:29.561Z,4.80
2018-05-10T03:41:55.584Z,4.80
2018-05-10T03:44:21.623Z,4.90
2018-05-10T03:46:47.639Z,4.77
2018-05-10T03:49:13.664Z,4.90
2018-05-10T03:51:39.770Z,4.73
2018-05-10T03:54:05.791Z,5.30
2018-05-10T03:56:31.801Z,5.23
2018-05-10T03:58:57.822Z,5.20
2018-05-10T04:01:23.836Z,5.50
2018-05-10T04:04:03.157Z,4.77
2018-05-10T04:06:41.561Z,5.00
2018-05-10T04:09:20.093Z,4.80
2018-05-10T04:11:46.101Z,5.27
2018-05-10T04:14:12.117Z,5.40
2018-05-10T04:16:38.864Z,5.10
2018-05-10T04:19:05.683Z,5.33
2018-05-10T04:21:32.374Z,5.00
2018-05-10T04:23:59.141Z,4.87
2018-05-10T04:26:25.158Z,5.30
2018-05-10T04:28:51.919Z,4.50
2018-05-10T04:31:18.668Z,4.80
2018-05-10T04:33:45.432Z,5.23
2018-05-10T04:36:11.479Z,5.00
2018-05-10T04:38:37.504Z,4.77
2018-05-10T04:41:03.603Z,5.43
2018-05-10T04:43:29.616Z,5.20
2018-05-10T04:45:55.628Z,5.13
2018-05-10T04:48:21.642Z,5.50
2018-05-10T04:50:48.387Z,5.73
2018-05-10T04:53:15.151Z,5.57
2018-05-10T04:55:41.209Z,6.20
2018-05-10T04:58:07.222Z,5.60
2018-05-10T05:00:34.016Z,5.10
2018-05-10T05:03:00.040Z,5.10
2018-05-10T05:05:26.049Z,5.53
2018-05-10T05:07:52.056Z,5.40
2018-05-10T05:10:18.108Z,5.60
2018-05-10T05:12:44.863Z,5.27
2018-05-10T05:15:11.626Z,5.07
2018-05-10T05:17:38.377Z,6.07
2018-05-10T05:20:05.287Z,5.50
2018-05-10T05:22:31.290Z,5.13
2018-05-10T05:24:57.317Z,6.10
2018-05-10T05:27:23.341Z,6.30
2018-05-10T05:29:50.104Z,6.20
2018-05-10T05:32:16.110Z,6.77
2018-05-10T05:34:42.129Z,5.93
2018-05-10T05:37:08.152Z,5.90
2018-05-10T05:39:34.178Z,6.10
2018-05-10T05:42:00.182Z,5.70
2018-05-10T05:44:26.206Z,5.73
2018-05-10T05:46:52.965Z,5.40
2018-05-10T05:49:18.990Z,5.60
2018-05-10T05:51:45.730Z,5.80
2018-05-10T05:54:11.855Z,5.87
2018-05-10T05:56:37.876Z,5.20
2018-05-10T05:59:03.907Z,5.63
2018-05-10T06:01:29.929Z,5.53
2018-05-10T06:03:55.973Z,5.97
2018-05-10T06:06:21.982Z,5.30
2018-05-10T06:08:48.028Z,5.07
2018-05-10T06:11:14.020Z,5.47
2018-05-10T06:13:40.029Z,6.30
2018-05-10T06:16:06.191Z,5.40
2018-05-10T06:18:32.197Z,5.40
2018-05-10T06:20:58.225Z,6.03
2018-05-10T06:23:24.244Z,5.70
2018-05-10T06:25:50.268Z,6.20
2018-05-10T06:28:16.290Z,6.03
2018-05-10T06:30:43.107Z,5.90
2018-05-10T06:33:09.116Z,5.03
2018-05-10T06:35:35.184Z,6.13
2018-05-10T06:38:08.309Z,5.60
2018-05-10T06:40:34.422Z,6.37
2018-05-10T06:43:00.433Z,6.00
2018-05-10T06:45:26.459Z,6.60
2018-05-10T06:47:52.470Z,5.80
2018-05-10T06:50:19.255Z,6.17
2018-05-10T06:52:45.413Z,6.33
2018-05-10T06:55:11.460Z,6.07
2018-05-10T06:57:37.486Z,5.80
2018-05-10T07:00:03.518Z,6.97
2018-05-10T07:02:29.539Z,6.13
2018-05-10T07:04:55.554Z,6.17
2018-05-10T07:07:21.686Z,5.80
2018-05-10T07:09:48.658Z,5.67
2018-05-10T07:12:14.629Z,6.23
2018-05-10T07:14:40.647Z,6.30
2018-05-10T07:17:06.669Z,5.53
2018-05-10T07:19:32.681Z,6.00
2018-05-10T07:21:59.451Z,5.00
2018-05-10T07:24:25.513Z,6.00
2018-05-10T07:26:51.575Z,6.53
2018-05-10T07:29:17.585Z,6.00
2018-05-10T07:31:43.612Z,6.50
2018-05-10T07:34:09.656Z,6.40
2018-05-10T07:36:35.806Z,7.17
2018-05-10T07:39:01.834Z,6.20
2018-05-10T07:41:27.855Z,6.50
2018-05-10T07:43:53.876Z,6.30
2018-05-10T07:46:19.892Z,7.60
2018-05-10T07:48:46.723Z,7.50
2018-05-10T07:51:12.754Z,7.10
2018-05-10T07:53:38.770Z,6.50
2018-05-10T07:56:04.840Z,6.80
2018-05-10T07:58:32.342Z,6.33
2018-05-10T08:00:58.362Z,6.70
2018-05-10T08:03:25.193Z,6.57
2018-05-10T08:05:51.205Z,6.33
2018-05-10T08:08:17.219Z,6.40
2018-05-10T08:10:43.225Z,7.47
2018-05-10T08:13:09.990Z,7.30
2018-05-10T08:15:36.007Z,7.60
2018-05-10T08:18:02.767Z,6.90
2018-05-10T08:20:29.515Z,7.30
2018-05-10T08:22:56.368Z,7.27
2018-05-10T08:25:22.298Z,7.63
2018-05-10T08:27:48.338Z,7.77
2018-05-10T08:30:15.158Z,7.73
2018-05-10T08:32:41.871Z,8.37
2018-05-10T08:35:07.883Z,9.00
2018-05-10T08:37:34.624Z,8.80
2018-05-10T08:40:00.643Z,8.40
2018-05-10T08:42:26.663Z,8.43
2018-05-10T08:44:52.679Z,8.70
2018-05-10T08:47:18.691Z,7.20
2018-05-10T08:49:44.715Z,7.80
2018-05-10T08:52:11.467Z,7.47
2018-05-10T08:54:38.221Z,8.60
2018-05-10T08:57:04.976Z,6.97
2018-05-10T08:59:31.726Z,7.30
2018-05-10T09:01:58.475Z,7.03
2018-05-10T09:04:25.266Z,7.87
2018-05-10T09:06:51.265Z,8.53
2018-05-10T09:09:18.020Z,7.20
2018-05-10T09:11:44.770Z,6.90
2018-05-10T09:14:11.530Z,8.07
2018-05-10T09:16:38.277Z,9.17
2018-05-10T09:19:05.042Z,10.30
2018-05-10T09:21:31.050Z,8.77
2018-05-10T09:23:57.074Z,8.30
2018-05-10T09:26:23.078Z,7.53
2018-05-10T09:28:49.099Z,7.57
2018-05-10T09:31:15.109Z,7.83
2018-05-10T09:33:41.863Z,7.90
2018-05-10T09:36:08.618Z,8.77
2018-05-10T09:38:34.642Z,8.70
2018-05-10T09:41:01.412Z,8.80
2018-05-10T09:43:27.418Z,8.73
2018-05-10T09:45:53.458Z,8.93
2018-05-10T09:48:19.475Z,8.50
2018-05-10T09:50:45.510Z,9.93
2018-05-10T09:53:11.535Z,7.93
2018-05-10T09:55:37.549Z,7.00
2018-05-10T09:58:03.575Z,7.00
2018-05-10T10:00:29.608Z,6.30
2018-05-10T10:02:55.618Z,5.50
2018-05-10T10:05:22.381Z,5.10
2018-05-10T10:07:49.198Z,5.80
2018-05-10T10:10:15.226Z,5.77
2018-05-10T10:12:41.255Z,5.90
2018-05-10T10:15:07.292Z,4.50
2018-05-10T10:17:33.336Z,5.97
2018-05-10T10:19:59.350Z,7.60
2018-05-10T10:22:25.393Z,6.43
2018-05-10T10:24:51.411Z,7.80
2018-05-10T10:27:17.426Z,8.00
2018-05-10T10:29:43.454Z,8.67
2018-05-10T10:32:09.471Z,9.77
2018-05-10T10:34:36.242Z,10.20
2018-05-10T10:37:02.276Z,10.30
2018-05-10T10:39:28.301Z,10.00
2018-05-10T10:41:55.073Z,11.00
2018-05-10T10:44:21.096Z,9.83
2018-05-10T10:46:47.846Z,11.40
2018-05-10T10:49:14.596Z,10.60
2018-05-10T10:51:41.369Z,12.43
2018-05-10T10:54:07.446Z,11.60
2018-05-10T10:56:33.465Z,12.50
2018-05-10T10:58:59.554Z,10.70
2018-05-10T11:01:26.318Z,12.30
2018-05-10T11:03:52.354Z,10.70
2018-05-10T11:06:19.133Z,11.63
2018-05-10T11:08:45.152Z,8.10
2018-05-10T11:11:11.213Z,8.70
2018-05-10T11:13:37.233Z,7.07
2018-05-10T11:16:03.275Z,6.47
2018-05-10T11:18:29.310Z,4.90
2018-05-10T11:20:55.356Z,5.70
2018-05-10T11:23:21.347Z,4.00
2018-05-10T11:25:48.103Z,4.43
2018-05-10T11:28:14.848Z,4.43
2018-05-10T11:30:40.885Z,3.77
2018-05-10T11:33:07.661Z,4.00
2018-05-10T11:35:34.472Z,3.30
2018-05-10T11:38:00.600Z,3.37
2018-05-10T11:40:26.610Z,3.17
2018-05-10T11:42:52.621Z,3.00
2018-05-10T11:45:18.699Z,2.97
2018-05-10T11:47:45.058Z,3.07
2018-05-10T11:50:11.079Z,2.73
2018-05-10T11:52:37.160Z,2.90
2018-05-10T11:55:03.918Z,2.93
2018-05-10T11:57:30.683Z,3.17
2018-05-10T11:59:56.703Z,2.30
2018-05-10T12:02:23.461Z,2.77
2018-05-10T12:04:49.538Z,2.20
2018-05-10T12:07:15.589Z,2.07
2018-05-10T12:09:41.619Z,2.23
2018-05-10T12:12:07.643Z,2.00
2018-05-10T12:14:33.664Z,2.10
2018-05-10T12:16:59.736Z,2.07
2018-05-10T12:19:25.755Z,1.90
2018-05-10T12:21:51.770Z,2.07
2018-05-10T12:24:17.778Z,2.30
2018-05-10T12:26:43.808Z,2.20
2018-05-10T12:29:10.565Z,2.37
2018-05-10T12:31:37.326Z,2.10
2018-05-10T12:34:03.427Z,2.03
2018-05-10T12:36:29.433Z,2.13
2018-05-10T12:38:55.450Z,2.10
2018-05-10T12:41:21.462Z,1.90
2018-05-10T12:43:48.224Z,2.40
2018-05-10T12:46:14.302Z,2.67
2018-05-10T12:48:40.390Z,2.77
2018-05-10T12:51:07.139Z,2.40
2018-05-10T12:53:33.982Z,2.20
2018-05-10T12:56:00.765Z,2.40
2018-05-10T12:58:42.455Z,2.07
2018-05-10T13:01:09.275Z,2.23
2018-05-10T13:03:35.305Z,1.87
2018-05-10T13:06:01.315Z,2.13
2018-05-10T13:08:27.339Z,2.47
2018-05-10T13:10:53.563Z,2.37
2018-05-10T13:13:20.366Z,2.80
2018-05-10T13:15:46.352Z,3.07
2018-05-10T13:18:12.368Z,3.50
2018-05-10T13:20:39.265Z,5.93
2018-05-10T13:23:05.439Z,9.80
2018-05-10T13:25:31.460Z,8.07
2018-05-10T13:27:57.546Z,9.37
2018-05-10T13:30:24.305Z,10.17
2018-05-10T13:32:51.084Z,10.47
2018-05-10T13:35:17.109Z,10.30
2018-05-10T13:37:43.137Z,9.80
2018-05-10T13:40:09.277Z,10.70
2018-05-10T13:42:35.290Z,11.60
2018-05-10T13:45:01.310Z,9.30
2018-05-10T13:47:27.348Z,7.47
2018-05-10T13:49:53.332Z,6.73
2018-05-10T13:52:19.410Z,6.20
2018-05-10T13:54:45.584Z,5.40
2018-05-10T13:57:12.333Z,4.67
2018-05-10T13:59:39.148Z,6.20
2018-05-10T14:02:05.179Z,4.00
2018-05-10T14:04:31.281Z,1.97
2018-05-10T14:06:57.366Z,3.03
2018-05-10T14:09:23.417Z,3.37
2018-05-10T14:11:49.429Z,1.93
2018-05-10T14:14:15.455Z,1.90
2018-05-10T14:16:41.531Z,3.23
2018-05-10T14:19:07.651Z,4.00
2018-05-10T14:21:34.410Z,3.53
2018-05-10T14:24:00.438Z,7.00
2018-05-10T14:26:26.582Z,6.03
2018-05-10T14:28:52.650Z,5.60
2018-05-10T14:31:19.220Z,6.93
2018-05-10T14:33:45.650Z,6.70
2018-05-10T14:36:11.666Z,6.23
2018-05-10T14:38:38.427Z,5.50
2018-05-10T14:41:04.481Z,5.10
2018-05-10T14:43:30.518Z,4.93
2018-05-10T14:45:56.561Z,5.57
2018-05-10T14:48:22.581Z,4.97
2018-05-10T14:50:48.602Z,5.23
2018-05-10T14:53:15.364Z,5.60
2018-05-10T14:55:41.386Z,5.63
2018-05-10T14:58:08.142Z,5.87
2018-05-10T15:00:34.929Z,6.47
2018-05-10T15:03:00.942Z,7.07
2018-05-10T15:05:26.982Z,8.20
2018-05-10T15:07:53.070Z,7.97
2018-05-10T15:10:19.104Z,8.00
2018-05-10T15:12:45.125Z,9.60
2018-05-10T15:15:11.161Z,9.17
2018-05-10T15:17:37.192Z,8.47
2018-05-10T15:20:03.209Z,9.23
2018-05-10T15:22:29.234Z,7.90
2018-05-10T15:24:55.253Z,8.10
2018-05-10T15:27:22.026Z,8.17
2018-05-10T15:29:48.036Z,7.20
2018-05-10T15:32:14.817Z,6.47
2018-05-10T15:34:40.821Z,7.60
2018-05-10T15:37:07.578Z,6.27
2018-05-10T15:39:34.334Z,7.10
2018-05-10T15:42:01.102Z,7.40
2018-05-10T15:44:27.134Z,7.17
2018-05-10T15:46:53.163Z,8.77
2018-05-10T15:49:19.181Z,8.27
2018-05-10T15:51:46.020Z,7.53
2018-05-10T15:54:12.034Z,9.90
2018-05-10T15:56:38.083Z,10.97
2018-05-10T15:59:04.129Z,10.60
2018-05-10T16:01:30.165Z,10.80
2018-05-10T16:03:56.196Z,11.30
2018-05-10T16:06:22.220Z,11.27
2018-05-10T16:08:48.244Z,11.93
2018-05-10T16:11:14.296Z,10.80
2018-05-10T16:13:40.313Z,11.30
2018-05-10T16:16:06.398Z,11.30
2018-05-10T16:18:33.169Z,11.03
2018-05-10T16:20:59.192Z,10.80
2018-05-10T16:23:25.959Z,11.47
2018-05-10T16:25:51.982Z,14.67
2018-05-10T16:28:18.746Z,12.20
2018-05-10T16:30:44.769Z,11.77
2018-05-10T16:33:11.541Z,11.13
2018-05-10T16:35:37.554Z,11.80
2018-05-10T16:38:04.322Z,11.17
2018-05-10T16:40:30.342Z,9.57
2018-05-10T16:42:57.101Z,10.50
2018-05-10T16:45:23.867Z,10.43
2018-05-10T16:47:50.360Z,11.20
2018-05-10T16:50:16.379Z,12.00
2018-05-10T16:52:42.405Z,11.10
2018-05-10T16:55:08.425Z,10.73
2018-05-10T16:57:34.525Z,9.73
2018-05-10T17:00:01.323Z,9.70
2018-05-10T17:02:27.345Z,9.83
2018-05-10T17:04:53.376Z,9.93
2018-05-10T17:07:20.150Z,9.93
2018-05-10T17:09:46.169Z,11.00
2018-05-10T17:12:12.176Z,11.43
2018-05-10T17:14:38.192Z,10.90
2018-05-10T17:17:04.222Z,10.27
2018-05-10T17:19:30.248Z,11.43
2018-05-10T17:21:56.302Z,10.83
2018-05-10T17:24:22.342Z,11.93
2018-05-10T17:26:48.363Z,7.97
2018-05-10T17:29:14.381Z,13.87
2018-05-10T17:31:40.429Z,12.83
2018-05-10T17:34:06.453Z,14.60
2018-05-10T17:36:32.483Z,13.20
2018-05-10T17:41:25.418Z,13.63
2018-05-10T17:43:51.433Z,13.00
2018-05-10T17:46:17.438Z,13.60
2018-05-10T17:48:43.463Z,13.47
2018-05-10T17:51:09.488Z,13.30
2018-05-10T17:53:36.262Z,14.10
2018-05-10T17:56:02.291Z,13.70
2018-05-10T17:58:28.325Z,14.07
2018-05-10T18:00:54.436Z,13.77
2018-05-10T18:03:20.448Z,15.53
2018-05-10T18:05:46.479Z,15.47
2018-05-10T18:08:12.512Z,13.73
2018-05-10T18:10:38.542Z,14.80
2018-05-10T18:13:04.635Z,13.40
2018-05-10T18:15:31.418Z,14.90
2018-05-10T18:17:57.484Z,13.50
2018-05-10T18:20:23.501Z,14.63
2018-05-10T18:22:49.525Z,14.40
2018-05-10T18:25:15.710Z,14.67
2018-05-10T18:27:41.836Z,13.40
2018-05-10T18:30:07.854Z,14.83
2018-05-10T18:32:33.925Z,12.67
2018-05-10T18:34:59.948Z,13.73
2018-05-10T18:37:25.982Z,12.40
2018-05-10T18:39:52.010Z,14.00
2018-05-10T18:42:18.054Z,13.50
2018-05-10T18:44:44.077Z,13.47
2018-05-10T18:47:10.106Z,14.77
2018-05-10T18:49:36.281Z,12.70
2018-05-10T18:52:02.305Z,11.83
2018-05-10T18:54:28.344Z,12.83
2018-05-10T18:56:54.482Z,12.43
2018-05-10T18:59:20.509Z,10.97
2018-05-10T19:01:46.605Z,10.50
2018-05-10T19:04:12.600Z,12.17
2018-05-10T19:06:38.829Z,9.97
2018-05-10T19:09:05.007Z,10.93
2018-05-10T19:11:31.896Z,12.73
2018-05-10T19:13:57.914Z,11.00
2018-05-10T19:16:23.925Z,11.87
2018-05-10T19:18:50.709Z,11.87
2018-05-10T19:21:16.890Z,12.00
2018-05-10T19:23:42.920Z,12.43
2018-05-10T19:26:08.946Z,14.80
2018-05-10T19:28:34.984Z,12.37
2018-05-10T19:31:01.020Z,12.60
2018-05-10T19:33:27.033Z,12.00
2018-05-10T19:35:53.075Z,11.47
2018-05-10T19:38:19.099Z,10.97
2018-05-10T19:40:45.126Z,11.90
2018-05-10T19:43:11.147Z,12.60
2018-05-10T19:45:37.905Z,11.97
2018-05-10T19:48:04.674Z,10.97
2018-05-10T19:50:30.685Z,11.87
2018-05-10T19:52:57.457Z,10.53
2018-05-10T19:55:23.533Z,10.90
2018-05-10T19:57:49.723Z,10.50
2018-05-10T20:00:16.480Z,11.23
2018-05-10T20:02:42.522Z,11.53
2018-05-10T20:05:08.554Z,10.60
2018-05-10T20:07:34.576Z,11.57
2018-05-10T20:10:01.371Z,10.83
2018-05-10T20:12:27.409Z,10.87
2018-05-10T20:14:53.421Z,11.10
2018-05-10T20:17:19.450Z,12.03
2018-05-10T20:19:46.202Z,13.00
2018-05-10T20:22:12.966Z,14.10
2018-05-10T20:24:38.983Z,12.70
2018-05-10T20:27:05.769Z,13.13
2018-05-10T20:29:31.815Z,12.53
2018-05-10T20:31:57.837Z,13.67
2018-05-10T20:34:23.857Z,14.77
2018-05-10T20:36:49.886Z,14.23
2018-05-10T20:39:16.651Z,13.07
2018-05-10T20:41:42.821Z,13.50
2018-05-10T20:44:09.519Z,12.67
2018-05-10T20:46:36.364Z,14.13
2018-05-10T20:49:02.390Z,14.13
2018-05-10T20:51:28.417Z,14.60
2018-05-10T20:53:54.428Z,14.70
2018-05-10T20:56:20.455Z,12.90
2018-05-10T20:58:46.481Z,15.13
2018-05-10T21:01:12.504Z,13.87
2018-05-10T21:03:39.337Z,14.53
2018-05-10T21:06:05.325Z,13.23
2018-05-10T21:08:31.362Z,13.67
2018-05-10T21:10:57.371Z,12.67
2018-05-10T21:13:23.407Z,13.27
2018-05-10T21:15:49.439Z,13.17
2018-05-10T21:18:16.226Z,11.17
2018-05-10T21:20:42.250Z,11.60
2018-05-10T21:23:08.289Z,11.90
2018-05-10T21:25:34.293Z,10.50
2018-05-10T21:28:01.113Z,11.93
2018-05-10T21:30:28.637Z,10.70
2018-05-10T21:32:54.663Z,11.70
2018-05-10T21:35:20.702Z,11.73
2018-05-10T21:37:46.726Z,11.30
2018-05-10T21:40:13.490Z,10.33
2018-05-10T21:42:39.504Z,11.13
2018-05-10T21:45:05.530Z,11.53
2018-05-10T21:47:32.294Z,11.10
2018-05-10T21:50:03.092Z,11.70
2018-05-10T21:52:29.111Z,11.00
2018-05-10T21:54:55.206Z,11.80
2018-05-10T21:57:21.158Z,10.80
2018-05-10T21:59:47.910Z,11.13
2018-05-10T22:02:22.693Z,9.40
2018-05-10T22:04:48.722Z,10.60
2018-05-10T22:07:14.742Z,10.90
2018-05-10T22:09:40.790Z,10.47
2018-05-10T22:12:06.807Z,9.80
2018-05-10T22:14:32.845Z,10.53
2018-05-10T22:16:58.865Z,12.50
2018-05-10T22:19:25.712Z,11.40
2018-05-10T22:21:52.385Z,10.40
2018-05-10T22:24:18.402Z,10.70
2018-05-10T22:26:45.145Z,9.37
2018-05-10T22:29:11.156Z,10.70
2018-05-10T22:31:37.171Z,10.53
2018-05-10T22:34:03.225Z,12.07
2018-05-10T22:36:29.251Z,11.10
2018-05-10T22:38:55.274Z,10.20
2018-05-10T22:41:21.302Z,10.10
2018-05-10T22:43:47.317Z,11.07
2018-05-10T22:46:14.083Z,11.20
2018-05-10T22:48:40.093Z,10.93
2018-05-10T22:51:06.120Z,11.53
2018-05-10T22:53:32.140Z,12.03
2018-05-10T22:55:58.202Z,11.23
2018-05-10T22:58:24.208Z,11.47
2018-05-10T23:00:50.224Z,11.37
2018-05-10T23:03:16.247Z,10.67
2018-05-10T23:05:42.279Z,12.03
2018-05-10T23:08:08.298Z,12.00
2018-05-10T23:10:35.075Z,13.20
2018-05-10T23:13:01.099Z,13.20
2018-05-10T23:15:27.112Z,10.10
2018-05-10T23:17:53.893Z,10.60
2018-05-10T23:20:20.644Z,11.10
2018-05-10T23:22:46.661Z,11.20
2018-05-10T23:25:13.420Z,14.00
2018-05-10T23:27:39.438Z,12.83
2018-05-10T23:30:05.466Z,12.43
2018-05-10T23:32:31.474Z,13.83
2018-05-10T23:34:57.493Z,14.83
2018-05-10T23:37:23.510Z,13.00
2018-05-10T23:39:49.529Z,13.83
2018-05-10T23:42:16.282Z,13.10
2018-05-10T23:44:43.047Z,12.47
2018-05-10T23:47:09.065Z,11.80
2018-05-10T23:49:35.833Z,10.70
2018-05-10T23:52:01.863Z,11.70
2018-05-10T23:54:28.657Z,11.33
2018-05-10T23:56:54.664Z,11.80
2018-05-10T23:59:20.678Z,12.03
